Burwell, NE

11:50 PM CDT on September 30, 2014 (GMT -0500)
Sharp | Change Station
CLOSE
Current Station
Airport
Location: Ord,
Elevation: 2070 ft
Nearby Weather Stations

Elev 2070 ft 41.62 °N, 98.95 °W | Updated 57 minutes ago

Partly Cloudy
Partly Cloudy
61 °F
Feels Like 61 °F
N
6
Wind Variable Wind from SE

Today
High -- | Low -- °F
--% Chance of Precip.
Yesterday
High -- | Low -- °F
Precip. -- in
7:32 AM 7:19 PM
Waxing Crescent, 43% visible
Pressure 29.71 in
Visibility 10.0 miles
Clouds Clear
Dew Point 58 °F
Humidity 90%
Rainfall 0.01 in
Snow Depth Not available.
UV 0 out of 12
Pollen 3.10 out of 12
Air Quality Not available.
Flu Activity Not available.
METAR KODX 010353Z AUTO 13005KT 10SM CLR 16/14 A2972 RMK AO2 SLP060 T01610144

More Conditions Fewer Conditions

Pressure 29.71 in
Visibility 10.0 miles
Clouds Clear
Dew Point 58 °F
Humidity 90%
Rainfall 0.01 in
Snow Depth Not available.
UV 0 out of 12
Pollen 3.10 out of 12
Air Quality Not available.
Flu Activity Not available.
METAR KODX 010353Z AUTO 13005KT 10SM CLR 16/14 A2972 RMK AO2 SLP060 T01610144

More Conditions Fewer Conditions

10-Day Weather Forecast

Almanac

Astronomy

Sep. 30, 2014 Rise Set
Actual Time 7:32 AM CDT 7:19 PM CDT
Civil Twilight 7:04 AM CDT 7:47 PM CDT
Nautical Twilight 6:32 AM CDT 8:19 PM CDT
Astronomical Twilight 5:59 AM CDT 8:52 PM CDT
Moon 1:45 PM CDT (9/30) 11:47 PM CDT (9/30)
Length of Visible Light 12h 42m
Length of Day
11h 47m
Tomorrow will be 2m 46s shorter.
Waxing Crescent, 43% of the Moon is Illuminated
Oct 1
Waxing Crescent
Oct 1
First Quarter
Oct 8
Full
Oct 15
Last Quarter
Oct 23
New

Yesterday's Extremes

State Highs State Lows

Community

WunderPhotos

Upload Photos

1,757,847 photos uploaded!

Nearby

Snow Depth

Station Depth Elevation
No new snow has been reported.

Earthquake Activity

City Distance Mag. Time & Date
No recent earthquake activity has been reported nearby.
Minimum magnitude displayed is 2.5.

Coastal Water Temperatures

Place Temperature
No Stations Reporting

Nearby Weather Stations